Página principal
METAR-TAF:

METAR-TAF

Aeroportos :

Lisboa, Portugal

Aeroporto Humberto Delgado

latitude: 38-46N, longitude: 009-08W, altura: 114 m

Observação actual do tempo

O boletim foi feito há 41 minutos, às 23:00 UTC
Vento 8 kt de noroeste
Temperatura 12°C
Humidade 54%
Pressão 1020 hPa
Visibilidade 10 km ou mais
sem nuvens abaixo de 1500 metros e sem cumulonimbus

METAR: LPPT 182300Z 32008KT CAVOK 12/03 Q1020

Hora: 23:41 (23:41 UTC)

Previsão

O boletim foi feito há 41 minutos, às 23:00 UTC
Previsão válida de 19 às 00 UTC a 20 às 06 UTC
Vento 8 kt de nordeste
Visibilidade 10 km ou mais
sem nuvens abaixo de 1500 metros e sem cumulonimbus
Tornando-se
de 19 às 15 UTC a 19 às 17 UTC
Vento 12 kt de nor-noroeste
Tornando-se
de 20 às 00 UTC a 20 às 02 UTC
Vento 8 kt de nordeste

TAF: LPPT 182300Z 1900/2006 04008KT CAVOK BECMG 1915/1917 34012KT BECMG 2000/2002 04008KT

Observações e previsões do tempo de mais de 4000 aeroportos (mensagens METAR e TAF).

As estações disponíveis são os pontos amarelos e vermelhos sobre o mapa.

Mova o rato sobre o mapa para ver o nome da estação.

Depois clique no ponto para visualizar as observações e previsões meteorológicas.

Para alterar o mapa : clique nos botões verdes com uma cruz preta para aumentar o zoom; no botão verde com uma pitada de zoom; ou nas setas verdes para mapas adjacentes.


METAR-TAF: